Weather at Volos Army Airport [CLOSED]

Public forecast

Using degrees Celsius for public forecast. Weather courtesy of forecast.io.

Closest aviation weather report (METAR) to Volos Army Airport

Closest report is Nea Anchialos National Airport, 11.4 nm (21.1 km) SSW. Retrieved 2021/04/12 20:50 UTC (50 minutes ago):

LGBL 122050Z 00000KT CAVOK 10/08 Q1019 RMK FEW200 BLU

Closest aviation forecast (TAF) to Volos Army Airport

Forecast is more than 12 hours old.

Closest forecast is Skiathos Island National Airport, 29.9 nm (55.5 km) ESE. Retrieved 2012/09/27 00:18 UTC (9 years ago):

TAF LGSK 272300Z 2800/2909 01010KT 9999 FEW020